Saga Ruby — 9HA2415 — position and weather

sailwx.info

Track history (hours):
 
Tides and Currents Weather Stations Pressure Air Temp Water Temp Dewpoint Dewpoint Depression Visibility Wind Speed Wind Dir Waves Ship Positions

Saga Ruby

Last reported at 2014-Jan-10 17:33 UTC. Time now 2014-Aug-23 15:20 UTC.
Position N 50°40' W 000°59'.
Warning: this ship's position is months out of date.

Length 191 m; draft 8.9 m.

Type: Ship. MMSI: 248563000.

Date/timePositionNaut miles runAvg speedWind from/ knotsBaromVisibWave heightAir tempDewpointWater temp
2014-Jan-10 17:33N 50°40' W 000°59'1312.7
2014-Jan-10 16:33N 50°46' W 001°16'9 8.8
2014-Jan-10 15:34N 50°53' W 001°24'1 0.7
2014-Jan-10 14:31N 50°54' W 001°25'0 0.0
2014-Jan-10 13:33N 50°54' W 001°25'0 0.0
2014-Jan-10 12:33N 50°54' W 001°25'0 0.0
2014-Jan-10 11:32N 50°54' W 001°25'0 0.0
2014-Jan-10 10:32N 50°54' W 001°25'0 0.0
2014-Jan-10 09:32N 50°54' W 001°25'0 0.0
2014-Jan-10 08:31N 50°54' W 001°25'0 0.0
2014-Jan-10 07:31N 50°54' W 001°25'0 0.0
2014-Jan-10 06:30N 50°54' W 001°25'0 0.0
2014-Jan-10 05:33N 50°54' W 001°25'0 0.0
2014-Jan-10 04:33N 50°54' W 001°25'0 0.0
2014-Jan-10 03:32N 50°54' W 001°25'0 0.0
2014-Jan-10 02:32N 50°54' W 001°25'0 0.0
2014-Jan-10 01:31N 50°54' W 001°25'0 0.0
2014-Jan-10 00:31N 50°54' W 001°25'0 0.0
2014-Jan-09 23:33N 50°54' W 001°25'5 4.7
2014-Jan-09 22:34N 50°51' W 001°20'10 9.8
2014-Jan-09 21:34N 50°45' W 001°07'8 8.4
2014-Jan-09 20:33N 50°38' W 000°59'10 9.8
2014-Jan-09 19:33N 50°28' W 000°59'1211.9
2014-Jan-09 18:33N 50°25' W 001°16'49116.3
2014-Jan-08 12:28N 44°11' W 009°06'1617.4
2014-Jan-08 11:32N 43°57' W 009°17'1717.3
2014-Jan-08 10:32N 43°41' W 009°28'1817.2
2014-Jan-08 09:31N 43°25' W 009°37'1616.8
2014-Jan-08 08:33N 43°10' W 009°47'2317.0
2014-Jan-08 07:12N 42°47' W 009°47'25016.0
2014-Jan-07 15:33N 38°38' W 009°22'9 9.0
2014-Jan-07 14:33N 38°41' W 009°11'3 3.0
2014-Jan-07 13:33N 38°43' W 009°08'0 0.0
2014-Jan-07 10:31N 38°43' W 009°08'0 0.0
2014-Jan-07 09:31N 38°43' W 009°08'0 0.0
2014-Jan-07 08:33N 38°43' W 009°08'0 0.0
2014-Jan-07 07:33N 38°43' W 009°08'0 0.0
2014-Jan-07 06:32N 38°43' W 009°08'0 0.0
2014-Jan-07 05:32N 38°43' W 009°08'0 0.0
2014-Jan-07 04:29N 38°43' W 009°08'0 0.0
2014-Jan-07 03:31N 38°43' W 009°08'0 0.0
2014-Jan-07 02:33N 38°43' W 009°08'0 0.0
2014-Jan-07 01:33N 38°43' W 009°08'0 0.0
2014-Jan-07 00:33N 38°43' W 009°08'0 0.0
2014-Jan-06 23:32N 38°43' W 009°08'0 0.0
2014-Jan-06 22:32N 38°43' W 009°08'0 0.0
2014-Jan-06 21:32N 38°43' W 009°08'0 0.0
2014-Jan-06 20:31N 38°43' W 009°08'0 0.0
2014-Jan-06 19:31N 38°43' W 009°08'0 0.1
2014-Jan-06 18:33N 38°43' W 009°08'0 0.0
2014-Jan-06 17:33N 38°43' W 009°08'0 0.0
2014-Jan-06 16:32N 38°43' W 009°08'0 0.0
2014-Jan-06 15:32N 38°43' W 009°08'0 0.0
2014-Jan-06 14:32N 38°43' W 009°08'0 0.0
2014-Jan-06 13:31N 38°43' W 009°08'0 0.0
2014-Jan-06 12:31N 38°43' W 009°08'0 0.0
2014-Jan-06 11:33N 38°43' W 009°08'0 0.0
2014-Jan-06 10:33N 38°43' W 009°08'0 0.0
2014-Jan-06 09:32N 38°43' W 009°08'0 0.0
2014-Jan-06 08:32N 38°43' W 009°08'0 0.0
2014-Jan-06 07:32N 38°43' W 009°08'0 0.0
2014-Jan-06 06:31N 38°43' W 009°08'0 0.0
2014-Jan-06 05:31N 38°43' W 009°08'0 0.0
2014-Jan-06 04:33N 38°43' W 009°08'0 0.0
2014-Jan-06 03:33N 38°43' W 009°08'0 0.0
2014-Jan-06 02:32N 38°43' W 009°08'0 0.0
2014-Jan-06 01:32N 38°43' W 009°08'0 0.0
2014-Jan-06 00:32N 38°43' W 009°08'0 0.0
2014-Jan-05 23:31N 38°43' W 009°08'0 0.0
2014-Jan-05 22:31N 38°43' W 009°08'0 0.0
2014-Jan-05 21:33N 38°43' W 009°08'0 0.0
2014-Jan-05 20:33N 38°43' W 009°08'0 0.0
2014-Jan-05 19:29N 38°43' W 009°08'0 0.0
2014-Jan-05 18:32N 38°43' W 009°08'0 0.0
2014-Jan-05 17:32N 38°43' W 009°08'0 0.0
2014-Jan-05 16:31N 38°43' W 009°08'0 0.0
2014-Jan-05 15:31N 38°43' W 009°08'0 0.0
2014-Jan-05 14:30N 38°43' W 009°08'0 0.0
2014-Jan-05 12:32N 38°43' W 009°08'0 0.0
2014-Jan-05 11:32N 38°43' W 009°08'0 0.0
2014-Jan-05 10:31N 38°43' W 009°08'0 0.0
2014-Jan-05 09:31N 38°43' W 009°08'0 0.0
2014-Jan-05 08:31N 38°43' W 009°08'0 0.0
2014-Jan-05 07:33N 38°43' W 009°08'0 0.0
2014-Jan-05 06:33N 38°43' W 009°08'0 0.0
2014-Jan-05 05:32N 38°43' W 009°08'0 0.0
2014-Jan-05 04:32N 38°43' W 009°08'0 0.0
2014-Jan-05 03:32N 38°43' W 009°08'0 0.0
2014-Jan-05 02:31N 38°43' W 009°08'0 0.0
2014-Jan-05 01:31N 38°43' W 009°08'0 0.0
2014-Jan-05 00:33N 38°43' W 009°08'0 0.0
2014-Jan-04 22:32N 38°43' W 009°08'0 0.0
2014-Jan-04 21:32N 38°43' W 009°08'0 0.0
2014-Jan-04 20:32N 38°43' W 009°08'0 0.0
2014-Jan-04 19:31N 38°43' W 009°08'0 0.0
2014-Jan-04 18:31N 38°43' W 009°08'0 0.0
2014-Jan-04 17:33N 38°43' W 009°08'0 0.0
2014-Jan-04 16:33N 38°43' W 009°08'0 0.0
2014-Jan-04 15:32N 38°43' W 009°08'0 0.0
2014-Jan-04 14:32N 38°43' W 009°08'0 0.0
2014-Jan-04 13:31N 38°43' W 009°08'0 0.0
2014-Jan-04 12:31N 38°43' W 009°08'0 0.0
2014-Jan-04 11:31N 38°43' W 009°08'0 0.0
2014-Jan-04 10:33N 38°43' W 009°08'0 0.0
2014-Jan-04 09:33N 38°43' W 009°08'0 0.0
2014-Jan-04 08:32N 38°43' W 009°08'0 0.0
2014-Jan-04 07:32N 38°43' W 009°08'0 0.0
2014-Jan-04 06:31N 38°43' W 009°08'0 0.0
2014-Jan-04 05:31N 38°43' W 009°08'0 0.0
2014-Jan-04 04:30N 38°43' W 009°08'0 0.0
2014-Jan-04 03:33N 38°43' W 009°08'0 0.0
2014-Jan-04 02:33N 38°43' W 009°08'0 0.0
2014-Jan-04 01:32N 38°43' W 009°08'0 0.0
2014-Jan-04 00:32N 38°43' W 009°08'0 0.0
2014-Jan-03 23:31N 38°43' W 009°08'0 0.0
2014-Jan-03 22:31N 38°43' W 009°08'0 0.0
2014-Jan-03 21:33N 38°43' W 009°08'0 0.0
2014-Jan-03 20:33N 38°43' W 009°08'0 0.0
2014-Jan-03 19:33N 38°43' W 009°08'0 0.0
2014-Jan-03 18:32N 38°43' W 009°08'0 0.0
2014-Jan-03 17:32N 38°43' W 009°08'0 0.0
2014-Jan-03 16:31N 38°43' W 009°08'0 0.0
2014-Jan-03 15:31N 38°43' W 009°08'0 0.0
2014-Jan-03 14:33N 38°43' W 009°08'0 0.0
2014-Jan-03 13:33N 38°43' W 009°08'0 0.0
2014-Jan-03 12:33N 38°43' W 009°08'0 0.0
2014-Jan-03 11:32N 38°43' W 009°08'0 0.0
2014-Jan-03 10:32N 38°43' W 009°08'49 6.1
2014-Jan-03 02:33N 38°11' W 009°55'14 8.9
2014-Jan-03 01:00N 38°00' W 010°06'5111.1 210 / 191021.027.0 1.517.614.3
2014-Jan-02 20:24N 37°25' W 010°53'1010.4
2014-Jan-02 19:28N 37°18' W 011°01'1510.6
2014-Jan-02 18:05N 37°08' W 011°14'27816.3
2014-Jan-02 01:00N 33°48' W 015°12'10914.6 230 / 161024.310.8 1.018.414.8
2014-Jan-01 17:33N 32°37' W 016°50'4 3.9
2014-Jan-01 16:32N 32°39' W 016°55'0 0.0
2014-Jan-01 15:32N 32°39' W 016°55'0 0.0
2014-Jan-01 14:31N 32°39' W 016°55'0 0.0
2014-Jan-01 13:31N 32°39' W 016°55'0 0.0
2014-Jan-01 12:30N 32°39' W 016°55'0 0.0
2014-Jan-01 11:33N 32°39' W 016°55'0 0.0
2014-Jan-01 10:33N 32°39' W 016°55'0 0.0
2014-Jan-01 09:32N 32°39' W 016°55'0 0.0
2014-Jan-01 08:32N 32°39' W 016°55'0 0.0
2014-Jan-01 07:31N 32°39' W 016°55'0 0.0
2014-Jan-01 06:31N 32°39' W 016°55'0 0.0
2014-Jan-01 05:33N 32°39' W 016°55'0 0.0
2014-Jan-01 04:33N 32°39' W 016°55'0 0.0
2014-Jan-01 03:33N 32°39' W 016°55'0 0.1
2014-Jan-01 02:33N 32°39' W 016°55'1 1.0
2014-Jan-01 01:33N 32°38' W 016°55'0 0.0
2014-Jan-01 00:27N 32°38' W 016°55'0 0.0
2013-Dec-31 23:32N 32°38' W 016°55'0 0.0
2013-Dec-31 22:32N 32°38' W 016°55'0 0.0
2013-Dec-31 21:31N 32°38' W 016°55'0 0.0
2013-Dec-31 20:31N 32°38' W 016°55'0 0.0
2013-Dec-31 19:33N 32°38' W 016°55'0 0.0
2013-Dec-31 18:33N 32°38' W 016°55'  
Track history (hours):
 
Tides and Currents Weather Stations Pressure Air Temp Water Temp Dewpoint Dewpoint Depression Visibility Wind Speed Wind Dir Waves Ship Positions

Saga Ruby

Last reported at 2014-Jan-10 17:33 UTC. Time now 2014-Aug-23 15:20 UTC.
Position N 50°40' W 000°59'.
Warning: this ship's position is months out of date.

Length 191 m; draft 8.9 m.

Type: Ship. MMSI: 248563000.

Date/timePositionNaut miles runAvg speedWind from/ knotsBaromVisibWave heightAir tempDewpointWater temp
2014-Jan-10 17:33N 50°40' W 000°59'1312.7
2014-Jan-10 16:33N 50°46' W 001°16'9 8.8
2014-Jan-10 15:34N 50°53' W 001°24'1 0.7
2014-Jan-10 14:31N 50°54' W 001°25'0 0.0
2014-Jan-10 13:33N 50°54' W 001°25'0 0.0
2014-Jan-10 12:33N 50°54' W 001°25'0 0.0
2014-Jan-10 11:32N 50°54' W 001°25'0 0.0
2014-Jan-10 10:32N 50°54' W 001°25'0 0.0
2014-Jan-10 09:32N 50°54' W 001°25'0 0.0
2014-Jan-10 08:31N 50°54' W 001°25'0 0.0
2014-Jan-10 07:31N 50°54' W 001°25'0 0.0
2014-Jan-10 06:30N 50°54' W 001°25'0 0.0
2014-Jan-10 05:33N 50°54' W 001°25'0 0.0
2014-Jan-10 04:33N 50°54' W 001°25'0 0.0
2014-Jan-10 03:32N 50°54' W 001°25'0 0.0
2014-Jan-10 02:32N 50°54' W 001°25'0 0.0
2014-Jan-10 01:31N 50°54' W 001°25'0 0.0
2014-Jan-10 00:31N 50°54' W 001°25'0 0.0
2014-Jan-09 23:33N 50°54' W 001°25'5 4.7
2014-Jan-09 22:34N 50°51' W 001°20'10 9.8
2014-Jan-09 21:34N 50°45' W 001°07'8 8.4
2014-Jan-09 20:33N 50°38' W 000°59'10 9.8
2014-Jan-09 19:33N 50°28' W 000°59'1211.9
2014-Jan-09 18:33N 50°25' W 001°16'49116.3
2014-Jan-08 12:28N 44°11' W 009°06'1617.4
2014-Jan-08 11:32N 43°57' W 009°17'1717.3
2014-Jan-08 10:32N 43°41' W 009°28'1817.2
2014-Jan-08 09:31N 43°25' W 009°37'1616.8
2014-Jan-08 08:33N 43°10' W 009°47'2317.0
2014-Jan-08 07:12N 42°47' W 009°47'25016.0
2014-Jan-07 15:33N 38°38' W 009°22'9 9.0
2014-Jan-07 14:33N 38°41' W 009°11'3 3.0
2014-Jan-07 13:33N 38°43' W 009°08'0 0.0
2014-Jan-07 10:31N 38°43' W 009°08'0 0.0
2014-Jan-07 09:31N 38°43' W 009°08'0 0.0
2014-Jan-07 08:33N 38°43' W 009°08'0 0.0
2014-Jan-07 07:33N 38°43' W 009°08'0 0.0
2014-Jan-07 06:32N 38°43' W 009°08'0 0.0
2014-Jan-07 05:32N 38°43' W 009°08'0 0.0
2014-Jan-07 04:29N 38°43' W 009°08'0 0.0
2014-Jan-07 03:31N 38°43' W 009°08'0 0.0
2014-Jan-07 02:33N 38°43' W 009°08'0 0.0
2014-Jan-07 01:33N 38°43' W 009°08'0 0.0
2014-Jan-07 00:33N 38°43' W 009°08'0 0.0
2014-Jan-06 23:32N 38°43' W 009°08'0 0.0
2014-Jan-06 22:32N 38°43' W 009°08'0 0.0
2014-Jan-06 21:32N 38°43' W 009°08'0 0.0
2014-Jan-06 20:31N 38°43' W 009°08'0 0.0
2014-Jan-06 19:31N 38°43' W 009°08'0 0.1
2014-Jan-06 18:33N 38°43' W 009°08'0 0.0
2014-Jan-06 17:33N 38°43' W 009°08'0 0.0
2014-Jan-06 16:32N 38°43' W 009°08'0 0.0
2014-Jan-06 15:32N 38°43' W 009°08'0 0.0
2014-Jan-06 14:32N 38°43' W 009°08'0 0.0
2014-Jan-06 13:31N 38°43' W 009°08'0 0.0
2014-Jan-06 12:31N 38°43' W 009°08'0 0.0
2014-Jan-06 11:33N 38°43' W 009°08'0 0.0
2014-Jan-06 10:33N 38°43' W 009°08'0 0.0
2014-Jan-06 09:32N 38°43' W 009°08'0 0.0
2014-Jan-06 08:32N 38°43' W 009°08'0 0.0
2014-Jan-06 07:32N 38°43' W 009°08'0 0.0
2014-Jan-06 06:31N 38°43' W 009°08'0 0.0
2014-Jan-06 05:31N 38°43' W 009°08'0 0.0
2014-Jan-06 04:33N 38°43' W 009°08'0 0.0
2014-Jan-06 03:33N 38°43' W 009°08'0 0.0
2014-Jan-06 02:32N 38°43' W 009°08'0 0.0
2014-Jan-06 01:32N 38°43' W 009°08'0 0.0
2014-Jan-06 00:32N 38°43' W 009°08'0 0.0
2014-Jan-05 23:31N 38°43' W 009°08'0 0.0
2014-Jan-05 22:31N 38°43' W 009°08'0 0.0
2014-Jan-05 21:33N 38°43' W 009°08'0 0.0
2014-Jan-05 20:33N 38°43' W 009°08'0 0.0
2014-Jan-05 19:29N 38°43' W 009°08'0 0.0
2014-Jan-05 18:32N 38°43' W 009°08'0 0.0
2014-Jan-05 17:32N 38°43' W 009°08'0 0.0
2014-Jan-05 16:31N 38°43' W 009°08'0 0.0
2014-Jan-05 15:31N 38°43' W 009°08'0 0.0
2014-Jan-05 14:30N 38°43' W 009°08'0 0.0
2014-Jan-05 12:32N 38°43' W 009°08'0 0.0
2014-Jan-05 11:32N 38°43' W 009°08'0 0.0
2014-Jan-05 10:31N 38°43' W 009°08'0 0.0
2014-Jan-05 09:31N 38°43' W 009°08'0 0.0
2014-Jan-05 08:31N 38°43' W 009°08'0 0.0
2014-Jan-05 07:33N 38°43' W 009°08'0 0.0
2014-Jan-05 06:33N 38°43' W 009°08'0 0.0
2014-Jan-05 05:32N 38°43' W 009°08'0 0.0
2014-Jan-05 04:32N 38°43' W 009°08'0 0.0
2014-Jan-05 03:32N 38°43' W 009°08'0 0.0
2014-Jan-05 02:31N 38°43' W 009°08'0 0.0
2014-Jan-05 01:31N 38°43' W 009°08'0 0.0
2014-Jan-05 00:33N 38°43' W 009°08'0 0.0
2014-Jan-04 22:32N 38°43' W 009°08'0 0.0
2014-Jan-04 21:32N 38°43' W 009°08'0 0.0
2014-Jan-04 20:32N 38°43' W 009°08'0 0.0
2014-Jan-04 19:31N 38°43' W 009°08'0 0.0
2014-Jan-04 18:31N 38°43' W 009°08'0 0.0
2014-Jan-04 17:33N 38°43' W 009°08'0 0.0
2014-Jan-04 16:33N 38°43' W 009°08'0 0.0
2014-Jan-04 15:32N 38°43' W 009°08'0 0.0
2014-Jan-04 14:32N 38°43' W 009°08'0 0.0
2014-Jan-04 13:31N 38°43' W 009°08'0 0.0
2014-Jan-04 12:31N 38°43' W 009°08'0 0.0
2014-Jan-04 11:31N 38°43' W 009°08'0 0.0
2014-Jan-04 10:33N 38°43' W 009°08'0 0.0
2014-Jan-04 09:33N 38°43' W 009°08'0 0.0
2014-Jan-04 08:32N 38°43' W 009°08'0 0.0
2014-Jan-04 07:32N 38°43' W 009°08'0 0.0
2014-Jan-04 06:31N 38°43' W 009°08'0 0.0
2014-Jan-04 05:31N 38°43' W 009°08'0 0.0
2014-Jan-04 04:30N 38°43' W 009°08'0 0.0
2014-Jan-04 03:33N 38°43' W 009°08'0 0.0
2014-Jan-04 02:33N 38°43' W 009°08'0 0.0
2014-Jan-04 01:32N 38°43' W 009°08'0 0.0
2014-Jan-04 00:32N 38°43' W 009°08'0 0.0
2014-Jan-03 23:31N 38°43' W 009°08'0 0.0
2014-Jan-03 22:31N 38°43' W 009°08'0 0.0
2014-Jan-03 21:33N 38°43' W 009°08'0 0.0
2014-Jan-03 20:33N 38°43' W 009°08'0 0.0
2014-Jan-03 19:33N 38°43' W 009°08'0 0.0
2014-Jan-03 18:32N 38°43' W 009°08'0 0.0
2014-Jan-03 17:32N 38°43' W 009°08'0 0.0
2014-Jan-03 16:31N 38°43' W 009°08'0 0.0
2014-Jan-03 15:31N 38°43' W 009°08'0 0.0
2014-Jan-03 14:33N 38°43' W 009°08'0 0.0
2014-Jan-03 13:33N 38°43' W 009°08'0 0.0
2014-Jan-03 12:33N 38°43' W 009°08'0 0.0
2014-Jan-03 11:32N 38°43' W 009°08'0 0.0
2014-Jan-03 10:32N 38°43' W 009°08'49 6.1
2014-Jan-03 02:33N 38°11' W 009°55'14 8.9
2014-Jan-03 01:00N 38°00' W 010°06'5111.1 210 / 191021.027.0 1.517.614.3
2014-Jan-02 20:24N 37°25' W 010°53'1010.4
2014-Jan-02 19:28N 37°18' W 011°01'1510.6
2014-Jan-02 18:05N 37°08' W 011°14'27816.3
2014-Jan-02 01:00N 33°48' W 015°12'10914.6 230 / 161024.310.8 1.018.414.8
2014-Jan-01 17:33N 32°37' W 016°50'4 3.9
2014-Jan-01 16:32N 32°39' W 016°55'0 0.0
2014-Jan-01 15:32N 32°39' W 016°55'0 0.0
2014-Jan-01 14:31N 32°39' W 016°55'0 0.0
2014-Jan-01 13:31N 32°39' W 016°55'0 0.0
2014-Jan-01 12:30N 32°39' W 016°55'0 0.0
2014-Jan-01 11:33N 32°39' W 016°55'0 0.0
2014-Jan-01 10:33N 32°39' W 016°55'0 0.0
2014-Jan-01 09:32N 32°39' W 016°55'0 0.0
2014-Jan-01 08:32N 32°39' W 016°55'0 0.0
2014-Jan-01 07:31N 32°39' W 016°55'0 0.0
2014-Jan-01 06:31N 32°39' W 016°55'0 0.0
2014-Jan-01 05:33N 32°39' W 016°55'0 0.0
2014-Jan-01 04:33N 32°39' W 016°55'0 0.0
2014-Jan-01 03:33N 32°39' W 016°55'0 0.1
2014-Jan-01 02:33N 32°39' W 016°55'1 1.0
2014-Jan-01 01:33N 32°38' W 016°55'0 0.0
2014-Jan-01 00:27N 32°38' W 016°55'0 0.0
2013-Dec-31 23:32N 32°38' W 016°55'0 0.0
2013-Dec-31 22:32N 32°38' W 016°55'0 0.0
2013-Dec-31 21:31N 32°38' W 016°55'0 0.0
2013-Dec-31 20:31N 32°38' W 016°55'0 0.0
2013-Dec-31 19:33N 32°38' W 016°55'0 0.0
2013-Dec-31 18:33N 32°38' W 016°55'  

Dump ship's entire track history